createdAt,value
2023-01-19T00:00:44.009Z,0.76
2023-01-19T00:03:15.706Z,0.77
2023-01-19T00:05:43.721Z,0.79
2023-01-19T00:08:16.641Z,0.71
2023-01-19T00:10:47.926Z,0.77
2023-01-19T00:13:15.183Z,0.71
2023-01-19T00:15:41.688Z,0.69
2023-01-19T00:18:09.795Z,0.70
2023-01-19T00:20:37.260Z,0.72
2023-01-19T00:23:04.680Z,0.74
2023-01-19T00:25:31.283Z,0.73
2023-01-19T00:27:59.309Z,0.72
2023-01-19T00:30:26.938Z,0.80
2023-01-19T00:32:53.357Z,0.76
2023-01-19T00:35:19.871Z,0.74
2023-01-19T00:37:46.326Z,0.71
2023-01-19T00:40:13.967Z,0.72
2023-01-19T00:42:40.421Z,0.71
2023-01-19T00:45:18.541Z,0.74
2023-01-19T00:47:45.606Z,0.72
2023-01-19T00:50:12.856Z,0.71
2023-01-19T00:52:40.283Z,0.76
2023-01-19T00:55:08.542Z,0.76
2023-01-19T00:57:35.026Z,0.73
2023-01-19T01:00:01.725Z,0.79
2023-01-19T01:02:28.329Z,0.82
2023-01-19T01:04:54.949Z,0.86
2023-01-19T01:07:22.050Z,0.93
2023-01-19T01:09:48.448Z,0.84
2023-01-19T01:12:14.850Z,0.89
2023-01-19T01:14:41.236Z,0.81
2023-01-19T01:17:11.258Z,0.82
2023-01-19T01:19:38.368Z,0.77
2023-01-19T01:22:05.176Z,0.78
2023-01-19T01:24:31.977Z,0.87
2023-01-19T01:26:58.402Z,0.88
2023-01-19T01:29:24.774Z,0.94
2023-01-19T01:31:51.277Z,1.03
2023-01-19T01:34:17.771Z,1.01
2023-01-19T01:36:44.215Z,1.11
2023-01-19T01:39:10.583Z,1.08
2023-01-19T01:41:37.054Z,1.12
2023-01-19T01:44:08.132Z,1.15
2023-01-19T01:46:34.508Z,1.17
2023-01-19T01:49:21.114Z,1.20
2023-01-19T01:51:51.120Z,1.25
2023-01-19T01:54:22.830Z,1.26
2023-01-19T01:56:51.917Z,1.26
2023-01-19T01:59:42.932Z,1.33
2023-01-19T02:02:36.936Z,1.34
2023-01-19T02:05:10.573Z,1.30
2023-01-19T02:08:04.622Z,1.27
2023-01-19T02:10:50.261Z,1.30
2023-01-19T02:13:20.512Z,1.33
2023-01-19T02:15:49.737Z,1.28
2023-01-19T02:18:16.508Z,1.31
2023-01-19T02:20:52.440Z,1.39
2023-01-19T02:23:31.606Z,1.37
2023-01-19T02:25:58.164Z,1.40
2023-01-19T02:28:26.082Z,1.39
2023-01-19T02:30:52.708Z,1.36
2023-01-19T02:33:19.111Z,1.31
2023-01-19T02:35:45.811Z,1.26
2023-01-19T02:38:13.503Z,1.30
2023-01-19T02:40:42.447Z,1.39
2023-01-19T02:43:09.329Z,1.42
2023-01-19T02:45:37.498Z,1.32
2023-01-19T02:48:05.387Z,1.34
2023-01-19T02:50:49.126Z,1.34
2023-01-19T02:53:31.446Z,1.28
2023-01-19T02:56:36.793Z,1.22
2023-01-19T02:59:08.882Z,1.27
2023-01-19T03:02:08.862Z,1.15
2023-01-19T03:04:56.959Z,1.15
2023-01-19T03:07:45.039Z,1.13
2023-01-19T03:10:26.354Z,1.09
2023-01-19T03:13:18.570Z,1.08
2023-01-19T03:15:49.808Z,1.04
2023-01-19T03:18:20.964Z,1.06
2023-01-19T03:20:50.379Z,1.07
2023-01-19T03:23:17.143Z,1.12
2023-01-19T03:25:45.348Z,1.10
2023-01-19T03:28:14.082Z,1.05
2023-01-19T03:30:45.365Z,1.08
2023-01-19T03:33:16.071Z,1.13
2023-01-19T03:35:46.113Z,1.01
2023-01-19T03:38:15.894Z,0.99
2023-01-19T03:40:42.892Z,1.01
2023-01-19T03:43:09.788Z,1.01
2023-01-19T03:45:38.364Z,1.03
2023-01-19T03:48:05.324Z,1.08
2023-01-19T03:50:31.907Z,1.13
2023-01-19T03:53:08.068Z,1.15
2023-01-19T03:55:36.028Z,1.11
2023-01-19T03:58:02.521Z,1.03
2023-01-19T04:00:29.428Z,1.10
2023-01-19T04:02:56.000Z,1.04
2023-01-19T04:05:22.545Z,1.11
2023-01-19T04:07:50.037Z,1.20
2023-01-19T04:10:19.792Z,1.23
2023-01-19T04:12:46.259Z,1.32
2023-01-19T04:15:13.143Z,1.29
2023-01-19T04:17:39.928Z,1.35
2023-01-19T04:20:07.681Z,1.44
2023-01-19T04:22:34.372Z,1.42
2023-01-19T04:25:00.897Z,1.40
2023-01-19T04:27:27.272Z,1.37
2023-01-19T04:29:53.652Z,1.42
2023-01-19T04:32:21.140Z,1.38
2023-01-19T04:34:47.505Z,1.39
2023-01-19T04:37:14.130Z,1.38
2023-01-19T04:39:40.733Z,1.28
2023-01-19T04:42:07.523Z,1.23
2023-01-19T04:44:34.017Z,1.18
2023-01-19T04:47:01.492Z,1.14
2023-01-19T04:49:27.863Z,1.12
2023-01-19T04:51:54.262Z,1.11
2023-01-19T04:54:20.933Z,1.00
2023-01-19T04:56:47.403Z,0.87
2023-01-19T04:59:14.001Z,0.73
2023-01-19T05:01:40.405Z,0.47
2023-01-19T05:04:07.728Z,0.33
2023-01-19T05:06:34.725Z,0.15
2023-01-19T05:09:01.217Z,0.11
2023-01-19T05:11:27.623Z,0.02
2023-01-19T05:13:54.050Z,-0.07
2023-01-19T05:16:20.503Z,-0.08
2023-01-19T05:18:46.915Z,-0.06
2023-01-19T05:21:13.293Z,-0.06
2023-01-19T05:23:39.695Z,-0.07
2023-01-19T05:26:06.164Z,-0.09
2023-01-19T05:28:33.151Z,-0.11
2023-01-19T05:30:59.711Z,-0.11
2023-01-19T05:33:26.171Z,-0.05
2023-01-19T05:35:53.240Z,-0.08
2023-01-19T05:38:29.291Z,-0.07
2023-01-19T05:41:00.403Z,-0.07
2023-01-19T05:43:26.828Z,-0.06
2023-01-19T05:45:53.294Z,-0.06
2023-01-19T05:48:19.665Z,-0.03
2023-01-19T05:50:46.137Z,-0.05
2023-01-19T05:53:12.562Z,-0.04
2023-01-19T05:55:39.173Z,0.00
2023-01-19T05:58:05.579Z,-0.03
2023-01-19T06:00:31.989Z,0.01
2023-01-19T06:03:00.614Z,-0.05
2023-01-19T06:05:27.348Z,-0.06
2023-01-19T06:07:56.505Z,0.04
2023-01-19T06:10:22.918Z,-0.04
2023-01-19T06:12:49.359Z,-0.11
2023-01-19T06:15:15.922Z,-0.20
2023-01-19T06:17:42.888Z,-0.15
2023-01-19T06:20:10.224Z,-0.15
2023-01-19T06:22:36.720Z,-0.17
2023-01-19T06:25:03.326Z,-0.11
2023-01-19T06:27:29.752Z,-0.13
2023-01-19T06:29:56.123Z,-0.09
2023-01-19T06:32:22.512Z,-0.19
2023-01-19T06:34:49.006Z,-0.15
2023-01-19T06:37:16.679Z,-0.11
2023-01-19T06:39:45.109Z,-0.15
2023-01-19T06:42:11.601Z,-0.08
2023-01-19T06:44:38.017Z,-0.07
2023-01-19T06:47:14.963Z,-0.07
2023-01-19T06:49:42.627Z,-0.07
2023-01-19T06:52:11.320Z,-0.12
2023-01-19T06:54:37.761Z,-0.10
2023-01-19T06:57:04.400Z,-0.14
2023-01-19T06:59:31.657Z,-0.15
2023-01-19T07:01:58.953Z,-0.13
2023-01-19T07:04:25.491Z,-0.14
2023-01-19T07:06:51.871Z,-0.14
2023-01-19T07:09:20.277Z,-0.05
2023-01-19T07:11:48.036Z,-0.10
2023-01-19T07:14:14.668Z,-0.07
2023-01-19T07:16:41.059Z,-0.07
2023-01-19T07:19:10.257Z,-0.05
2023-01-19T07:21:37.117Z,-0.08
2023-01-19T07:24:03.594Z,-0.14
2023-01-19T07:26:30.793Z,-0.15
2023-01-19T07:28:57.245Z,-0.10
2023-01-19T07:31:23.677Z,-0.17
2023-01-19T07:33:50.124Z,-0.20
2023-01-19T07:36:16.537Z,-0.12
2023-01-19T07:38:42.923Z,-0.15
2023-01-19T07:41:09.880Z,-0.10
2023-01-19T07:43:36.393Z,-0.06
2023-01-19T07:46:04.736Z,0.01
2023-01-19T07:48:31.302Z,-0.08
2023-01-19T07:51:01.545Z,0.05
2023-01-19T07:53:27.975Z,-0.02
2023-01-19T07:55:56.385Z,0.05
2023-01-19T07:58:23.971Z,0.06
2023-01-19T08:00:50.731Z,0.05
2023-01-19T08:03:17.787Z,0.12
2023-01-19T08:05:45.134Z,0.13
2023-01-19T08:08:12.468Z,0.16
2023-01-19T08:10:38.841Z,0.12
2023-01-19T08:13:05.230Z,0.11
2023-01-19T08:15:31.664Z,0.12
2023-01-19T08:17:59.694Z,0.16
2023-01-19T08:20:26.976Z,0.24
2023-01-19T08:23:00.121Z,0.32
2023-01-19T08:25:32.324Z,0.31
2023-01-19T08:27:58.756Z,0.30
2023-01-19T08:30:26.726Z,0.35
2023-01-19T08:32:54.545Z,0.40
2023-01-19T08:35:22.015Z,0.43
2023-01-19T08:37:48.390Z,0.41
2023-01-19T08:40:14.850Z,0.44
2023-01-19T08:42:41.269Z,0.44
2023-01-19T08:45:09.174Z,0.48
2023-01-19T08:47:35.642Z,0.54
2023-01-19T08:50:02.154Z,0.53
2023-01-19T08:52:29.321Z,0.53
2023-01-19T08:54:55.710Z,0.55
2023-01-19T08:57:22.100Z,0.53
2023-01-19T08:59:48.474Z,0.49
2023-01-19T09:02:14.920Z,0.35
2023-01-19T09:04:41.406Z,0.47
2023-01-19T09:07:07.812Z,0.49
2023-01-19T09:09:37.699Z,0.39
2023-01-19T09:12:04.315Z,0.51
2023-01-19T09:14:30.764Z,0.61
2023-01-19T09:16:57.172Z,0.59
2023-01-19T09:19:23.537Z,0.55
2023-01-19T09:21:50.706Z,0.61
2023-01-19T09:24:17.076Z,0.66
2023-01-19T09:26:43.532Z,0.66
2023-01-19T09:29:09.905Z,0.74
2023-01-19T09:31:37.230Z,0.76
2023-01-19T09:34:03.644Z,0.77
2023-01-19T09:36:30.181Z,0.74
2023-01-19T09:38:56.605Z,0.82
2023-01-19T09:41:24.950Z,0.77
2023-01-19T09:43:59.910Z,0.81
2023-01-19T09:46:29.355Z,0.81
2023-01-19T09:48:58.474Z,0.87
2023-01-19T09:51:38.276Z,0.86
2023-01-19T09:54:17.443Z,0.93
2023-01-19T09:56:45.144Z,0.94
2023-01-19T09:59:25.133Z,0.93
2023-01-19T10:02:18.888Z,0.95
2023-01-19T10:05:06.099Z,1.01
2023-01-19T10:07:36.205Z,0.99
2023-01-19T10:10:09.402Z,1.09
2023-01-19T10:12:44.824Z,1.05
2023-01-19T10:15:20.698Z,1.06
2023-01-19T10:18:05.765Z,1.15
2023-01-19T10:20:37.074Z,1.13
2023-01-19T10:23:05.956Z,1.11
2023-01-19T10:25:33.286Z,1.10
2023-01-19T10:28:00.277Z,1.21
2023-01-19T10:30:29.115Z,1.24
2023-01-19T10:32:55.631Z,1.23
2023-01-19T10:35:24.553Z,1.27
2023-01-19T10:37:56.641Z,1.26
2023-01-19T10:40:33.480Z,1.35
2023-01-19T10:43:00.395Z,1.29
2023-01-19T10:45:31.977Z,1.24
2023-01-19T10:48:01.262Z,1.20
2023-01-19T10:50:30.572Z,1.15
2023-01-19T10:52:59.647Z,1.17
2023-01-19T10:55:31.398Z,1.17
2023-01-19T10:57:58.501Z,1.15
2023-01-19T11:00:40.751Z,1.22
2023-01-19T11:03:29.996Z,1.26
2023-01-19T11:06:17.569Z,1.26
2023-01-19T11:08:44.985Z,1.32
2023-01-19T11:11:12.817Z,1.21
2023-01-19T11:13:40.127Z,1.29
2023-01-19T11:16:16.839Z,1.44
2023-01-19T11:18:44.070Z,1.54
2023-01-19T11:21:15.157Z,1.54
2023-01-19T11:23:53.108Z,1.54
2023-01-19T11:26:33.995Z,1.56
2023-01-19T11:29:02.366Z,1.55
2023-01-19T11:31:28.698Z,1.50
2023-01-19T11:33:59.522Z,1.54
2023-01-19T11:36:34.481Z,1.67
2023-01-19T11:39:20.541Z,1.83
2023-01-19T11:41:50.066Z,2.01
2023-01-19T11:44:20.278Z,2.28
2023-01-19T11:46:51.040Z,2.49
2023-01-19T11:49:40.711Z,2.55
2023-01-19T11:52:31.725Z,2.66
2023-01-19T11:55:03.796Z,2.79
2023-01-19T11:57:30.149Z,2.82
2023-01-19T11:59:58.565Z,2.59
2023-01-19T12:02:32.178Z,2.75
2023-01-19T12:05:04.055Z,2.61
2023-01-19T12:07:33.892Z,2.54
2023-01-19T12:10:07.601Z,2.61
2023-01-19T12:12:36.423Z,2.41
2023-01-19T12:15:08.242Z,2.43
2023-01-19T12:17:38.141Z,2.43
2023-01-19T12:20:33.979Z,2.41
2023-01-19T12:23:03.333Z,2.36
2023-01-19T12:26:08.561Z,2.39
2023-01-19T12:28:39.665Z,2.38
2023-01-19T12:31:06.153Z,2.27
2023-01-19T12:33:34.297Z,2.16
2023-01-19T12:36:26.702Z,2.10
2023-01-19T12:38:53.622Z,2.10
2023-01-19T12:41:39.148Z,2.12
2023-01-19T12:44:11.450Z,2.24
2023-01-19T12:46:38.393Z,2.18
2023-01-19T12:49:29.186Z,2.22
2023-01-19T12:52:30.512Z,2.13
2023-01-19T12:55:31.009Z,2.39
2023-01-19T12:58:14.533Z,2.54
2023-01-19T13:00:42.697Z,2.47
2023-01-19T13:03:18.223Z,2.40
2023-01-19T13:05:44.520Z,2.41
2023-01-19T13:08:13.890Z,2.35
2023-01-19T13:11:13.806Z,2.34
2023-01-19T13:13:49.376Z,2.36
2023-01-19T13:16:18.929Z,2.30
2023-01-19T13:19:05.258Z,2.25
2023-01-19T13:21:39.991Z,2.21
2023-01-19T13:24:22.854Z,2.21
2023-01-19T13:26:49.165Z,2.27
2023-01-19T13:29:34.453Z,2.31
2023-01-19T13:32:04.447Z,2.37
2023-01-19T13:34:39.407Z,2.33
2023-01-19T13:37:06.195Z,2.45
2023-01-19T13:39:36.978Z,2.34
2023-01-19T13:42:16.203Z,2.41
2023-01-19T13:44:47.072Z,2.33
2023-01-19T13:47:19.320Z,2.31
2023-01-19T13:49:45.588Z,2.23
2023-01-19T13:52:19.399Z,2.35
2023-01-19T13:54:53.261Z,2.43
2023-01-19T13:57:28.391Z,2.32
2023-01-19T14:00:14.505Z,2.32
2023-01-19T14:02:59.174Z,2.30
2023-01-19T14:05:31.061Z,2.23
2023-01-19T14:08:04.363Z,2.31
2023-01-19T14:10:31.262Z,2.33
2023-01-19T14:12:59.672Z,2.36
2023-01-19T14:15:26.727Z,2.33
2023-01-19T14:18:09.428Z,2.24
2023-01-19T14:20:38.667Z,2.22
2023-01-19T14:23:07.208Z,2.19
2023-01-19T14:25:35.634Z,2.14
2023-01-19T14:28:35.391Z,2.21
2023-01-19T14:31:17.385Z,2.25
2023-01-19T14:33:46.935Z,2.41
2023-01-19T14:36:17.815Z,2.30
2023-01-19T14:38:45.750Z,2.25
2023-01-19T14:41:12.480Z,2.18
2023-01-19T14:43:45.182Z,2.31
2023-01-19T14:46:18.515Z,2.16
2023-01-19T14:48:47.511Z,2.20
2023-01-19T14:51:17.888Z,2.30
2023-01-19T14:53:47.923Z,2.37
2023-01-19T14:56:24.663Z,2.41
2023-01-19T14:58:51.035Z,2.28
2023-01-19T15:01:17.599Z,2.41
2023-01-19T15:03:45.598Z,2.45
2023-01-19T15:06:14.821Z,2.37
2023-01-19T15:08:41.410Z,2.29
2023-01-19T15:11:15.168Z,2.26
2023-01-19T15:13:41.576Z,2.21
2023-01-19T15:16:08.958Z,2.22
2023-01-19T15:18:35.633Z,2.17
2023-01-19T15:21:03.019Z,2.14
2023-01-19T15:23:33.105Z,2.11
2023-01-19T15:26:04.293Z,2.16
2023-01-19T15:28:31.123Z,2.09
2023-01-19T15:30:58.662Z,2.03
2023-01-19T15:33:26.936Z,1.99
2023-01-19T15:35:53.882Z,1.90
2023-01-19T15:38:20.321Z,1.87
2023-01-19T15:40:51.226Z,1.91
2023-01-19T15:43:18.214Z,1.84
2023-01-19T15:45:54.685Z,1.76
2023-01-19T15:48:22.330Z,1.64
2023-01-19T15:50:48.747Z,1.61
2023-01-19T15:53:18.552Z,1.58
2023-01-19T15:55:48.238Z,1.55
2023-01-19T15:58:14.678Z,1.42
2023-01-19T16:00:41.457Z,1.33
2023-01-19T16:03:08.235Z,1.23
2023-01-19T16:05:43.010Z,1.18
2023-01-19T16:08:11.022Z,1.12
2023-01-19T16:10:37.484Z,1.18
2023-01-19T16:13:04.130Z,1.18
2023-01-19T16:15:30.544Z,1.18
2023-01-19T16:17:56.885Z,1.16
2023-01-19T16:20:23.209Z,1.11
2023-01-19T16:22:49.546Z,1.05
2023-01-19T16:25:15.916Z,1.03
2023-01-19T16:27:42.287Z,0.99
2023-01-19T16:30:11.531Z,0.98
2023-01-19T16:32:38.353Z,0.90
2023-01-19T16:35:05.070Z,0.94
2023-01-19T16:37:31.415Z,0.94
2023-01-19T16:39:58.042Z,0.95
2023-01-19T16:42:24.432Z,0.92
2023-01-19T16:44:50.771Z,0.85
2023-01-19T16:47:17.140Z,0.78
2023-01-19T16:49:43.491Z,0.79
2023-01-19T16:52:09.879Z,0.82
2023-01-19T16:54:38.499Z,0.80
2023-01-19T16:57:05.625Z,0.76
2023-01-19T16:59:32.122Z,0.70
2023-01-19T17:01:58.556Z,0.74
2023-01-19T17:04:25.139Z,0.72
2023-01-19T17:06:51.543Z,0.76
2023-01-19T17:09:17.893Z,0.81
2023-01-19T17:11:44.721Z,0.80
2023-01-19T17:14:22.106Z,0.72
2023-01-19T17:16:48.961Z,0.73
2023-01-19T17:19:17.057Z,0.71
2023-01-19T17:21:45.913Z,0.66
2023-01-19T17:24:12.412Z,0.65
2023-01-19T17:26:38.769Z,0.61
2023-01-19T17:29:07.079Z,0.61
2023-01-19T17:31:34.035Z,0.61
2023-01-19T17:34:01.124Z,0.62
2023-01-19T17:36:29.314Z,0.62
2023-01-19T17:38:57.674Z,0.59
2023-01-19T17:41:29.354Z,0.62
2023-01-19T17:43:56.556Z,0.63
2023-01-19T17:46:27.378Z,0.69
2023-01-19T17:48:55.428Z,0.63
2023-01-19T17:51:25.204Z,0.67
2023-01-19T17:53:52.372Z,0.67
2023-01-19T17:56:25.754Z,0.56
2023-01-19T17:58:52.128Z,0.54
2023-01-19T18:01:27.614Z,0.56
2023-01-19T18:03:54.296Z,0.56
2023-01-19T18:06:21.247Z,0.52
2023-01-19T18:08:48.632Z,0.52
2023-01-19T18:11:17.244Z,0.52
2023-01-19T18:13:45.469Z,0.57
2023-01-19T18:16:18.065Z,0.57
2023-01-19T18:18:44.487Z,0.56
2023-01-19T18:21:13.023Z,0.56
2023-01-19T18:23:43.208Z,0.52
2023-01-19T18:26:12.293Z,0.47
2023-01-19T18:28:39.098Z,0.49
2023-01-19T18:31:13.521Z,0.50
2023-01-19T18:33:40.450Z,0.52
2023-01-19T18:36:07.636Z,0.49
2023-01-19T18:38:35.318Z,0.44
2023-01-19T18:41:03.729Z,0.35
2023-01-19T18:43:30.248Z,0.32
2023-01-19T18:45:56.844Z,0.28
2023-01-19T18:48:23.677Z,0.39
2023-01-19T18:50:50.421Z,0.51
2023-01-19T18:53:17.265Z,0.55
2023-01-19T18:55:52.170Z,0.46
2023-01-19T18:58:19.019Z,0.47
2023-01-19T19:00:45.460Z,0.59
2023-01-19T19:03:11.898Z,0.60
2023-01-19T19:05:38.361Z,0.60
2023-01-19T19:08:05.224Z,0.61
2023-01-19T19:10:31.609Z,0.61
2023-01-19T19:12:58.301Z,0.67
2023-01-19T19:15:24.948Z,0.59
2023-01-19T19:17:51.334Z,0.72
2023-01-19T19:20:17.969Z,0.62
2023-01-19T19:22:44.336Z,0.47
2023-01-19T19:25:10.756Z,0.45
2023-01-19T19:27:37.176Z,0.41
2023-01-19T19:30:03.802Z,0.38
2023-01-19T19:32:30.217Z,0.41
2023-01-19T19:34:58.709Z,0.44
2023-01-19T19:37:25.774Z,0.47
2023-01-19T19:39:52.143Z,0.47
2023-01-19T19:42:18.509Z,0.45
2023-01-19T19:44:44.878Z,0.34
2023-01-19T19:47:11.235Z,0.35
2023-01-19T19:49:37.649Z,0.39
2023-01-19T19:52:04.065Z,0.38
2023-01-19T19:54:30.461Z,0.40
2023-01-19T19:56:56.815Z,0.46
2023-01-19T19:59:23.197Z,0.43
2023-01-19T20:01:50.941Z,0.46
2023-01-19T20:04:20.170Z,0.55
2023-01-19T20:06:48.203Z,0.57
2023-01-19T20:09:16.070Z,0.44
2023-01-19T20:11:44.505Z,0.31
2023-01-19T20:14:12.793Z,0.32
2023-01-19T20:16:39.513Z,0.43
2023-01-19T20:19:06.412Z,0.41
2023-01-19T20:21:35.607Z,0.49
2023-01-19T20:24:05.248Z,0.57
2023-01-19T20:26:34.015Z,0.69
2023-01-19T20:29:03.071Z,0.76
2023-01-19T20:31:31.864Z,0.76
2023-01-19T20:34:00.323Z,0.76
2023-01-19T20:36:26.939Z,0.75
2023-01-19T20:38:54.129Z,0.76
2023-01-19T20:41:21.304Z,0.82
2023-01-19T20:43:47.937Z,0.86
2023-01-19T20:46:14.851Z,0.64
2023-01-19T20:48:41.528Z,0.64
2023-01-19T20:51:12.723Z,0.73
2023-01-19T20:53:40.798Z,0.75
2023-01-19T20:56:11.064Z,0.86
2023-01-19T20:58:37.823Z,0.83
2023-01-19T21:01:19.250Z,0.77
2023-01-19T21:03:46.409Z,0.99
2023-01-19T21:06:13.331Z,1.04
2023-01-19T21:08:39.858Z,0.92
2023-01-19T21:11:06.633Z,0.76
2023-01-19T21:13:33.660Z,0.84
2023-01-19T21:16:00.701Z,0.85
2023-01-19T21:18:27.849Z,0.90
2023-01-19T21:20:55.323Z,1.12
2023-01-19T21:23:22.272Z,1.20
2023-01-19T21:25:50.737Z,1.25
2023-01-19T21:28:18.461Z,1.24
2023-01-19T21:30:45.030Z,1.14
2023-01-19T21:33:11.439Z,1.07
2023-01-19T21:35:38.505Z,1.08
2023-01-19T21:38:04.920Z,1.12
2023-01-19T21:40:31.384Z,1.16
2023-01-19T21:42:57.754Z,1.14
2023-01-19T21:45:24.177Z,1.16
2023-01-19T21:47:50.580Z,1.19
2023-01-19T21:50:16.978Z,1.28
2023-01-19T21:52:44.071Z,1.34
2023-01-19T21:55:10.748Z,1.38
2023-01-19T21:57:37.317Z,1.32
2023-01-19T22:00:06.326Z,1.33
2023-01-19T22:02:38.591Z,1.32
2023-01-19T22:05:06.495Z,1.28
2023-01-19T22:07:33.036Z,1.37
2023-01-19T22:09:59.443Z,1.28
2023-01-19T22:12:25.856Z,1.39
2023-01-19T22:14:52.552Z,1.42
2023-01-19T22:17:18.932Z,1.48
2023-01-19T22:19:45.420Z,1.48
2023-01-19T22:22:11.883Z,1.35
2023-01-19T22:24:38.648Z,1.44
2023-01-19T22:27:05.055Z,1.55
2023-01-19T22:29:31.427Z,1.57
2023-01-19T22:31:57.803Z,1.46
2023-01-19T22:34:24.168Z,1.42
2023-01-19T22:36:50.546Z,1.45
2023-01-19T22:39:16.947Z,1.41
2023-01-19T22:41:45.524Z,1.54
2023-01-19T22:44:17.402Z,1.54
2023-01-19T22:46:44.084Z,1.49
2023-01-19T22:49:13.093Z,1.49
2023-01-19T22:51:39.481Z,1.55
2023-01-19T22:54:06.120Z,1.56
2023-01-19T22:56:33.724Z,1.56
2023-01-19T22:59:00.588Z,1.53
2023-01-19T23:01:33.491Z,1.50
2023-01-19T23:04:00.984Z,1.54
2023-01-19T23:06:29.432Z,1.60
2023-01-19T23:08:57.907Z,1.41
2023-01-19T23:11:26.646Z,1.41
2023-01-19T23:13:53.102Z,1.42
2023-01-19T23:16:20.215Z,1.46
2023-01-19T23:18:47.087Z,1.46
2023-01-19T23:21:16.263Z,1.44
2023-01-19T23:23:42.813Z,1.52
2023-01-19T23:26:14.741Z,1.47
2023-01-19T23:28:41.390Z,1.42
2023-01-19T23:31:24.063Z,1.44
2023-01-19T23:33:51.870Z,1.42
2023-01-19T23:36:18.937Z,1.51
2023-01-19T23:38:53.422Z,1.51
2023-01-19T23:41:20.475Z,1.48
2023-01-19T23:43:46.944Z,1.51
2023-01-19T23:46:14.407Z,1.56
2023-01-19T23:48:40.771Z,1.48
2023-01-19T23:51:19.460Z,1.46
2023-01-19T23:53:46.115Z,1.58
2023-01-19T23:56:19.955Z,1.54
2023-01-19T23:58:48.377Z,1.50
